KAXV/AXV METAR and TAF weather

Enter ICAO airport designator
Station Type Date Time Source
KAXV METAR 2018/01/21 12:15 UTC NOAA

KAXV 211215Z AUTO 17005KT 1 3/4SM -RA OVC003 05/05 A3008 RMK AO2


Station Type Date Time Source
KAXV Decoded METAR 2018/01/21 12:15 UTC NOAA

Station name not available
Jan 21, 2018 - 07:15 AM EST / 2018.01.21 1215 UTC
Wind: from the S (170 degrees) at 6 MPH (5 KT):0
Visibility: 1 3/4 mile(s):0
Sky conditions: overcast
Weather: light rain
Temperature: 41 F (5 C)
Dew Point: 41 F (5 C)
Relative Humidity: 100%
Pressure (altimeter): 30.08 in. Hg (1018 hPa)
ob: KAXV 211215Z AUTO 17005KT 1 3/4SM -RA OVC003 05/05 A3008 RMK AO2
cycle: 12

Station Type Date Time Source
KAXV TAF UTC NOAA

Error!


Example: see airport list